Flight Track Log - Related Links

Times and Time Zones

All times are in EDT time to prevent confusion due to time zone crossing. See the CTL22 flight status page for this flight to view local times or setup timezone preferences in your user account.

Time Position Orientation Groundspeed Altitude Reporting Facility
EDT Latitude Longitude Course Direction KTS MPH feet Rate Location/Type
Mon 09:37:32 PM 41.5686 -81.7156 322° Northwest 139 160 2,600  Level Cleveland Center
Mon 09:38:38 PM 41.5850 -81.7658 294° West 126 145 3,900 992 Climbing Cleveland Center
Mon 09:39:39 PM 41.6031 -81.8078 300° West 137 158 4,700 787 Climbing Cleveland Center
Mon 09:40:40 PM 41.6236 -81.8525 302° West 134 154 5,500 645 Climbing Cleveland Center
Mon 09:41:40 PM 41.6461 -81.8975 304° West 145 167 6,000 298 Climbing Cleveland Center
Mon 09:42:41 PM 41.6642 -81.9533 293° West 155 178 6,100 43 Climbing Cleveland Center
Mon 09:43:59 PM 41.7158 -81.9822 337° Northwest 178 205 6,100  Level Cleveland Center
Mon 09:44:59 PM 41.7444 -82.0275 310° West 164 189 6,100  Level Cleveland Center
Mon 09:45:59 PM 41.7667 -82.0781 301° West 158 182 6,100 -50 Level Cleveland Center
Mon 09:46:59 PM 41.7889 -82.1344 298° West 163 188 6,000 -50 Descending Cleveland Center
Mon 09:47:59 PM 41.8111 -82.1878 299° West 163 188 6,000  Level Cleveland Center
Mon 09:48:59 PM 41.8375 -82.2414 303° West 163 188 6,000 50 Level Cleveland Center
Mon 09:49:59 PM 41.8597 -82.2922 300° West 163 188 6,100  Climbing Cleveland Center
Mon 09:50:40 PM 41.8778 -82.3289 303° West 164 189 6,000  Descending Cleveland Center
Mon 09:51:41 PM 41.9000 -82.3825 299° West 166 191 6,100  Climbing Cleveland Center
Mon 09:52:42 PM 41.9219 -82.4417 297° West 165 190 6,000 -47 Descending Cleveland Center
Mon 09:53:49 PM 41.9417 -82.5036 293° West 165 190 6,000  Level Cleveland Center
Mon 09:54:50 PM 41.9639 -82.5603 298° West 167 192 6,000  Level Cleveland Center
Mon 09:55:57 PM 41.9856 -82.6225 295° West 166 191 6,000  Level Cleveland Center
Mon 09:56:58 PM 42.0033 -82.6817 292° West 168 193 6,000  Level Cleveland Center
Mon 09:57:47 PM 42.0192 -82.7269 295° West 169 194 6,000 50 Level Cleveland Center
Mon 09:58:59 PM 42.0428 -82.7919 296° West 168 193 6,100  Climbing Cleveland Center
Mon 09:59:43 PM 42.0567 -82.8400 291° West 167 192 6,000 -58 Descending Cleveland Center
Mon 10:00:43 PM 42.0742 -82.8994 292° West 168 193 6,000  Level Cleveland Center
Mon 10:01:57 PM 42.0956 -82.9672 293° West 164 189 6,000  Level Cleveland Center
Mon 10:03:04 PM 42.1111 -83.0267 289° West 164 189 6,000 47 Level Cleveland Center
Mon 10:04:04 PM 42.1328 -83.0864 296° West 164 189 6,100  Climbing Cleveland Center
Mon 10:04:59 PM 42.1525 -83.1347 299° West 163 188 6,000 -52 Descending Cleveland Center
Mon 10:06:00 PM 42.1681 -83.1914 290° West 162 186 6,000  Level Cleveland Center
Mon 10:07:01 PM 42.1875 -83.2483 295° West 159 183 6,000  Level Cleveland Center
Mon 10:07:56 PM 42.2050 -83.2967 296° West 154 177 6,000 49 Level Cleveland Center
Mon 10:09:03 PM 42.2247 -83.3536 295° West 154 177 6,100 49 Climbing Cleveland Center
Mon 10:09:58 PM 42.2400 -83.4019 300° West 159 183 6,100  Level Cleveland Center
Mon 10:11:05 PM 42.2594 -83.4617 294° West 157 181 6,100 -50 Level Cleveland Center
Mon 10:11:59 PM 42.2769 -83.5103 296° West 162 186 6,000 -55 Descending Cleveland Center
Mon 10:12:54 PM 42.2925 -83.5614 292° West 159 183 6,000 52 Level Cleveland Center
Mon 10:13:55 PM 42.3056 -83.6156 288° West 159 183 6,100  Climbing Cleveland Center
Mon 10:14:56 PM 42.3228 -83.6725 292° West 162 186 6,000 -52 Descending Cleveland Center
Mon 10:15:51 PM 42.3381 -83.7239 292° West 161 185 6,000 52 Level Cleveland Center
Mon 10:16:52 PM 42.3575 -83.7781 296° West 163 188 6,100  Climbing Cleveland Center
Mon 10:17:52 PM 42.3767 -83.8325 295° West 165 190 6,000 -15 Descending Cleveland Center
Mon 10:19:00 PM 42.3942 -83.8941 291° West  Level FlightAware Approximate
Mon 10:23:33 PM 42.4789 -84.1481 292° West 163 188 6,000  Level Chicago Center
Mon 10:24:34 PM 42.4972 -84.2050 294° West 165 190 6,000  Level Chicago Center
Mon 10:25:35 PM 42.5189 -84.2753 293° West 168 193 6,000  Level Chicago Center
Mon 10:26:00 PM 42.5047 -84.2740 293° West  Level FlightAware Approximate
Mon 10:26:37 PM 42.5392 -84.3322 296° West 169 194 6,000  Level Chicago Center
Mon 10:27:00 PM 42.5211 -84.3279 293° West  Level FlightAware Approximate
Mon 10:27:38 PM 42.5631 -84.3858 301° West 167 192 6,000  Level Chicago Center
Mon 10:28:00 PM 42.5376 -84.3819 292° West  Level FlightAware Approximate
Mon 10:28:39 PM 42.5839 -84.4433 296° West 169 194 6,000  Level Chicago Center
Mon 10:29:41 PM 42.6006 -84.5042 290° West 173 199 6,000  Level Chicago Center
Mon 10:30:42 PM 42.6189 -84.5622 293° West 170 196 6,000  Level Chicago Center
Mon 10:31:43 PM 42.6381 -84.6217 294° West 172 198 6,000  Level Chicago Center
Mon 10:32:45 PM 42.6572 -84.6811 294° West 172 198 6,000  Level Chicago Center
Mon 10:33:46 PM 42.6739 -84.7419 290° West 173 199 6,000  Level Chicago Center
Mon 10:34:47 PM 42.6989 -84.8128 296° West 173 199 6,000  Level Chicago Center
Mon 10:35:49 PM 42.7147 -84.8719 290° West 171 197 6,000  Level Chicago Center
Mon 10:36:50 PM 42.7344 -84.9283 295° West 167 192 6,000  Level Chicago Center
Mon 10:37:51 PM 42.7414 -84.9883 279° West 163 188 6,000 -49 Level Chicago Center
Mon 10:38:52 PM 42.7486 -85.0486 279° West 163 188 5,900 -732 Descending Chicago Center
Mon 10:39:54 PM 42.7711 -85.1125 296° West 195 224 4,500 -1,366 Descending Chicago Center
Mon 10:40:55 PM 42.8019 -85.1747 304° West 201 231 3,100 -934 Descending Chicago Center
Mon 10:41:56 PM 42.8386 -85.2217 317° Northwest 193 222 2,600 -295 Descending Chicago Center
Mon 10:42:57 PM 42.8797 -85.2272 354° North 153 176 2,500 -49 Descending Chicago Center
Mon 10:43:59 PM 42.9281 -85.2444 345° North 150 173 2,500  Level Chicago Center
Mon 10:45:00 PM 42.9114 -85.2878 242° Southwest 156 180 2,500 -98 Level Chicago Center
Mon 10:46:01 PM 42.9003 -85.3422 254° West 152 175 2,300 -98 Descending Chicago Center
Mon 10:47:03 PM 42.8925 -85.3992 259° West 153 176 2,300 -244 Level Chicago Center
Mon 10:48:04 PM 42.8875 -85.4511 263° West 145 167 1,800 -689 Descending Chicago Center
Mon 10:49:05 PM 42.8814 -85.5011 261° West 137 158 900 -885 Descending Chicago Center
Mon 10:51:00 PM 42.8667 -85.5167 270° West  Level FlightAware Approximate

Login

Don't have an account? Register now (free) for customized features, flight alerts, and more!